Time;durP1;ratioP1;P1;durP2;ratioP2;P2;SDS_P1;SDS_P2;PMS_P1;PMS_P2;Temp;Humidity;BMP_temperature;BMP_pressure;BME280_temperature;BME280_humidity;BME280_pressure;Samples;Min_cycle;Max_cycle;Signal;HPM_P1;HPM_P2
2020/12/05 00:01:03;;;;;;;27.23;21.80;;;;;;;5.05;100.00;98641.09;5055639;28;20055;-77
2020/12/05 00:04:07;;;;;;;25.92;20.60;;;;;;;5.02;100.00;98635.22;5055973;28;20503;-78
2020/12/05 00:07:13;;;;;;;23.73;21.33;;;;;;;5.06;100.00;98639.28;5055951;28;20052;-78
2020/12/05 00:10:17;;;;;;;25.73;20.10;;;;;;;5.11;100.00;98637.06;5056101;28;20052;-78
2020/12/05 00:13:22;;;;;;;21.15;18.95;;;;;;;5.16;100.00;98648.09;5043159;28;20052;-77
2020/12/05 00:16:26;;;;;;;22.42;17.98;;;;;;;5.20;100.00;98625.53;5055645;28;20060;-77
2020/12/05 00:19:31;;;;;;;20.05;17.95;;;;;;;5.23;100.00;98630.59;5055843;28;20052;-78
2020/12/05 00:22:35;;;;;;;19.25;17.25;;;;;;;5.23;100.00;98617.28;5055388;28;20123;-77
2020/12/05 00:25:40;;;;;;;21.02;18.80;;;;;;;5.20;100.00;98620.22;5055274;28;20044;-77
2020/12/05 00:28:46;;;;;;;20.88;18.45;;;;;;;5.23;100.00;98631.41;5043168;28;20044;-77
2020/12/05 00:31:51;;;;;;;20.70;18.48;;;;;;;5.24;100.00;98656.19;5055458;28;20044;-77
2020/12/05 00:34:56;;;;;;;21.02;18.75;;;;;;;5.26;100.00;98667.50;5055363;28;20048;-77
2020/12/05 00:38:00;;;;;;;21.55;17.95;;;;;;;5.22;100.00;98674.94;5043253;28;20072;-77
2020/12/05 00:41:04;;;;;;;20.45;18.15;;;;;;;5.31;100.00;98681.22;5054845;28;20059;-78
2020/12/05 00:44:09;;;;;;;21.48;18.05;;;;;;;5.34;100.00;98674.78;5054848;28;20056;-78
2020/12/05 00:47:15;;;;;;;18.33;16.42;;;;;;;5.38;100.00;98661.06;5054548;28;20048;-78
2020/12/05 00:50:19;;;;;;;17.35;15.57;;;;;;;5.37;100.00;98645.25;5054722;28;20056;-77
2020/12/05 00:53:24;;;;;;;17.75;14.98;;;;;;;5.38;100.00;98647.78;5054458;28;20060;-78
2020/12/05 00:56:29;;;;;;;16.80;15.10;;;;;;;5.37;99.87;98659.38;5042761;28;20502;-78
2020/12/05 00:59:33;;;;;;;20.15;16.23;;;;;;;5.35;100.00;98656.03;5054778;28;20052;-77
2020/12/05 01:02:38;;;;;;;19.20;17.08;;;;;;;5.28;100.00;98662.91;5054777;28;20064;-77
2020/12/05 01:05:42;;;;;;;21.75;18.73;;;;;;;5.23;99.89;98658.00;5054950;28;20072;-77
2020/12/05 01:08:47;;;;;;;19.90;17.67;;;;;;;5.30;100.00;98686.69;5042526;28;20392;-78
2020/12/05 01:11:51;;;;;;;23.85;19.92;;;;;;;5.28;100.00;98695.66;5053875;28;20064;-78
2020/12/05 01:15:01;;;;;;;23.42;20.85;;;;;;;5.33;100.00;98631.41;5054500;28;20052;-78
2020/12/05 01:18:05;;;;;;;24.08;21.33;;;;;;;5.33;100.00;98638.53;5054764;28;20076;-77
2020/12/05 01:21:10;;;;;;;28.33;22.10;;;;;;;5.41;100.00;98638.63;5042125;28;20052;-78
2020/12/05 01:24:14;;;;;;;23.77;21.08;;;;;;;5.41;100.00;98646.63;5042058;28;20052;-77
2020/12/05 01:27:19;;;;;;;23.88;21.35;;;;;;;5.36;100.00;98660.34;5054255;28;20388;-77
2020/12/05 01:30:23;;;;;;;25.13;21.67;;;;;;;5.39;100.00;98680.50;5054579;28;20491;-78
2020/12/05 01:33:30;;;;;;;23.08;20.52;;;;;;;5.40;100.00;98672.41;5054527;28;20056;-77
2020/12/05 01:36:35;;;;;;;23.00;19.77;;;;;;;5.33;100.00;98686.41;5042183;28;20094;-77
2020/12/05 01:39:39;;;;;;;23.60;20.52;;;;;;;5.33;100.00;98735.16;5054266;28;20052;-78
2020/12/05 01:42:43;;;;;;;22.58;19.90;;;;;;;5.40;100.00;98738.06;5053765;28;20056;-78
2020/12/05 01:45:48;;;;;;;21.95;19.63;;;;;;;5.40;100.00;98736.25;5054140;28;20049;-78
2020/12/05 01:48:52;;;;;;;22.33;19.50;;;;;;;5.43;100.00;98740.47;5054282;28;20056;-78
2020/12/05 01:51:57;;;;;;;20.63;18.45;;;;;;;5.44;100.00;98753.59;5053919;28;20056;-79
2020/12/05 01:55:04;;;;;;;22.15;19.75;;;;;;;5.48;100.00;98770.16;5053874;28;20048;-78
2020/12/05 01:58:08;;;;;;;21.55;19.25;;;;;;;5.44;100.00;98782.03;5054086;28;20052;-78
2020/12/05 02:01:14;;;;;;;20.48;18.38;;;;;;;5.43;100.00;98781.19;5054047;28;20385;-78
2020/12/05 02:04:19;;;;;;;18.60;16.55;;;;;;;5.38;100.00;98780.78;5041499;28;20051;-77
2020/12/05 02:07:35;;;;;;;16.75;15.02;;;;;;;5.28;100.00;98785.28;5041625;28;20064;-78
2020/12/05 02:10:48;;;;;;;16.15;14.55;;;;;;;5.23;100.00;98779.53;5053788;28;20047;-78
2020/12/05 02:13:58;;;;;;;14.15;12.80;;;;;;;5.10;100.00;98793.09;5053718;28;20064;-79
2020/12/05 02:17:04;;;;;;;15.27;12.20;;;;;;;5.10;99.69;98806.38;5053341;28;20052;-78
2020/12/05 02:20:11;;;;;;;13.90;12.50;;;;;;;5.09;99.13;98809.16;5053694;28;20051;-78
2020/12/05 02:23:17;;;;;;;13.27;11.90;;;;;;;4.94;98.78;98807.88;5056376;28;20056;-77
2020/12/05 02:26:22;;;;;;;12.90;11.60;;;;;;;4.90;98.76;98811.81;5057766;28;20060;-78
2020/12/05 02:29:27;;;;;;;13.20;11.82;;;;;;;4.91;98.40;98819.66;5057641;28;20048;-77
2020/12/05 02:32:31;;;;;;;12.57;11.23;;;;;;;4.81;98.26;98821.44;5057624;28;20063;-78
2020/12/05 02:35:36;;;;;;;11.90;10.80;;;;;;;4.80;97.55;98834.84;5057575;28;20056;-78
2020/12/05 02:39:09;;;;;;;11.95;10.70;;;;;;;4.75;97.10;98810.50;5057638;28;20052;-77
2020/12/05 02:42:14;;;;;;;13.00;10.40;;;;;;;4.76;97.13;98815.69;5045025;28;20056;-78
2020/12/05 02:45:18;;;;;;;13.65;10.50;;;;;;;4.82;96.51;98823.13;5057754;28;20068;-78
2020/12/05 02:48:22;;;;;;;11.30;10.20;;;;;;;4.71;96.45;98804.63;5057667;28;20048;-78
2020/12/05 02:51:27;;;;;;;12.88;11.57;;;;;;;4.73;96.52;98805.34;5056975;28;20052;-78
2020/12/05 02:54:32;;;;;;;12.82;10.80;;;;;;;4.79;96.64;98794.16;5057288;28;20056;-77
2020/12/05 02:57:36;;;;;;;12.40;10.85;;;;;;;4.78;96.50;98799.59;5057193;28;20483;-78
2020/12/05 03:00:40;;;;;;;12.57;11.25;;;;;;;4.78;96.07;98802.25;5057203;28;20068;-78
2020/12/05 03:03:45;;;;;;;12.82;11.43;;;;;;;4.80;96.29;98777.22;5057017;28;20403;-78
2020/12/05 03:06:49;;;;;;;13.88;12.38;;;;;;;4.74;96.06;98777.75;5057018;28;20052;-78
2020/12/05 03:09:53;;;;;;;15.07;11.27;;;;;;;4.76;96.06;98770.53;5057195;28;20071;-78
2020/12/05 03:12:58;;;;;;;12.13;10.13;;;;;;;4.80;96.21;98781.69;5056468;28;20056;-78
2020/12/05 03:16:02;;;;;;;12.07;10.88;;;;;;;4.84;96.08;98772.50;5057150;28;20055;-78
2020/12/05 03:19:06;;;;;;;10.88;9.77;;;;;;;4.75;95.75;98752.88;5056776;28;20048;-77
2020/12/05 03:22:11;;;;;;;13.07;10.93;;;;;;;4.70;95.26;98778.19;5056713;28;20060;-77
2020/12/05 03:25:15;;;;;;;11.98;9.25;;;;;;;4.65;95.37;98806.97;5056716;28;20052;-78
2020/12/05 03:28:20;;;;;;;11.82;10.63;;;;;;;4.55;95.34;98823.72;5056636;28;20056;-78
2020/12/05 03:34:34;;;;;;;13.73;12.32;;;;;;;4.41;95.88;98808.19;5055381;28;20048;-77
2020/12/05 03:37:38;;;;;;;13.60;12.20;;;;;;;4.46;95.84;98829.88;5044269;28;20056;-78
2020/12/05 03:40:42;;;;;;;13.80;12.40;;;;;;;4.53;96.22;98833.66;5056446;28;20506;-78
2020/12/05 03:43:46;;;;;;;13.38;11.98;;;;;;;4.59;96.28;98837.59;5056296;28;20052;-78
2020/12/05 03:46:51;;;;;;;13.30;11.98;;;;;;;4.68;96.40;98826.16;5056275;28;20044;-78
2020/12/05 03:49:37;;;;;;;14.32;12.82;;;;;;;4.64;96.59;98815.94;5041778;28;20060;-78
2020/12/05 03:52:42;;;;;;;13.77;12.30;;;;;;;4.53;96.42;98816.88;5043202;28;20055;-77
2020/12/05 03:55:46;;;;;;;14.63;13.02;;;;;;;4.60;96.43;98826.84;5056138;28;20056;-77
2020/12/05 03:58:53;;;;;;;14.10;12.10;;;;;;;4.64;96.45;98834.53;5043581;28;20048;-77
2020/12/05 04:01:57;;;;;;;14.95;13.35;;;;;;;4.67;96.64;98821.00;5043746;28;20056;-77
2020/12/05 04:05:02;;;;;;;16.58;13.40;;;;;;;4.63;96.84;98825.72;5055807;28;20056;-78
2020/12/05 04:08:07;;;;;;;15.20;12.50;;;;;;;4.68;96.69;98836.78;5055672;28;20044;-78
2020/12/05 04:11:11;;;;;;;14.15;12.43;;;;;;;4.71;96.39;98835.69;5055907;28;20056;-77
2020/12/05 04:14:15;;;;;;;15.15;13.27;;;;;;;4.75;96.83;98834.41;5055483;28;20107;-78
2020/12/05 04:17:20;;;;;;;16.38;13.60;;;;;;;4.68;96.63;98818.19;5055464;28;20052;-77
2020/12/05 04:20:24;;;;;;;16.40;12.73;;;;;;;4.73;96.57;98831.06;5055648;28;20052;-77
2020/12/05 04:23:28;;;;;;;17.65;14.77;;;;;;;4.79;96.75;98854.47;5043186;28;20052;-77
2020/12/05 04:26:32;;;;;;;20.10;14.55;;;;;;;4.79;96.65;98867.75;5055777;28;20048;-77
2020/12/05 04:29:37;;;;;;;23.70;15.90;;;;;;;4.79;96.41;98873.88;5055250;28;20530;-77
2020/12/05 04:32:41;;;;;;;23.08;15.38;;;;;;;4.86;96.74;98879.53;5055186;28;20048;-77
2020/12/05 04:35:46;;;;;;;22.52;15.65;;;;;;;4.87;96.33;98881.19;5055041;28;20048;-78
2020/12/05 04:38:49;;;;;;;28.10;17.83;;;;;;;4.79;95.92;98887.16;5054849;28;20056;-78
2020/12/05 04:41:54;;;;;;;35.70;19.98;;;;;;;4.64;96.33;98872.59;5055389;28;20056;-78
2020/12/05 04:44:58;;;;;;;33.65;19.65;;;;;;;4.68;96.63;98886.44;5054899;28;20383;-78
2020/12/05 04:48:04;;;;;;;39.90;20.42;;;;;;;4.67;96.34;98877.63;5055046;28;20059;-78
2020/12/05 04:51:17;;;;;;;35.78;20.13;;;;;;;4.70;96.28;98863.22;5055195;28;20048;-78
2020/12/05 04:54:26;;;;;;;37.55;21.42;;;;;;;4.70;96.38;98861.41;5054206;28;20055;-77
2020/12/05 04:57:39;;;;;;;39.25;21.50;;;;;;;4.61;96.80;98848.94;5054953;28;20044;-77
2020/12/05 05:00:45;;;;;;;41.67;22.08;;;;;;;4.56;97.23;98836.06;5054949;28;20487;-78
2020/12/05 05:03:54;;;;;;;46.58;23.98;;;;;;;4.55;97.13;98823.72;5054646;28;20052;-78
2020/12/05 05:07:05;;;;;;;52.20;24.52;;;;;;;4.61;97.42;98830.34;5054545;28;20052;-78
2020/12/05 05:10:16;;;;;;;47.42;24.02;;;;;;;4.52;97.22;98855.88;5054778;28;20399;-78
2020/12/05 05:13:23;;;;;;;45.55;24.23;;;;;;;4.60;97.32;98884.44;5031208;28;20056;-78
2020/12/05 05:16:29;;;;;;;43.08;23.38;;;;;;;4.66;97.92;98877.75;5054476;28;20048;-78
2020/12/05 05:19:35;;;;;;;46.55;23.00;;;;;;;4.69;97.69;98880.16;5042225;28;20048;-78
2020/12/05 05:22:39;;;;;;;42.40;22.45;;;;;;;4.70;98.10;98873.84;5042338;28;20048;-78
2020/12/05 05:25:59;;;;;;;48.50;22.50;;;;;;;4.64;97.73;98869.09;5054362;28;20391;-78
2020/12/05 05:29:04;;;;;;;42.92;21.27;;;;;;;4.67;97.64;98867.00;5054286;28;20388;-77
2020/12/05 05:35:15;;;;;;;48.42;23.83;;;;;;;4.63;97.86;98868.25;5054093;28;20075;-78
2020/12/05 05:38:22;;;;;;;52.28;22.77;;;;;;;4.63;97.83;98867.38;5041873;28;20052;-78
2020/12/05 05:41:27;;;;;;;44.33;21.83;;;;;;;4.65;97.87;98879.56;5053843;28;20052;-78
2020/12/05 05:44:31;;;;;;;51.42;22.70;;;;;;;4.67;98.10;98887.44;5053666;28;20495;-78
2020/12/05 05:47:35;;;;;;;45.17;21.58;;;;;;;4.67;97.73;98895.41;5054021;28;20068;-78
2020/12/05 05:50:40;;;;;;;40.80;19.13;;;;;;;4.62;97.94;98900.28;5054228;28;20056;-78
2020/12/05 05:53:45;;;;;;;57.08;32.88;;;;;;;4.68;97.91;98910.34;5053419;28;20064;-78
2020/12/05 05:57:15;;;;;;;36.40;19.33;;;;;;;4.67;97.75;98911.34;5053117;28;20048;-78
2020/12/05 06:00:19;;;;;;;76.43;44.75;;;;;;;4.64;97.25;98909.78;5053858;28;20048;-77
2020/12/05 06:03:28;;;;;;;33.30;17.20;;;;;;;4.55;96.83;98914.06;5053808;28;20052;-78
2020/12/05 06:06:33;;;;;;;28.63;15.00;;;;;;;4.61;96.84;98912.72;5041789;28;20063;-78
2020/12/05 06:09:51;;;;;;;25.13;14.27;;;;;;;4.67;96.59;98921.97;5041554;28;20052;-78
2020/12/05 06:12:57;;;;;;;21.38;12.57;;;;;;;4.65;96.16;98924.75;5041154;28;20052;-78
2020/12/05 06:16:02;;;;;;;21.48;12.80;;;;;;;4.64;95.90;98917.78;5053742;28;20484;-78
2020/12/05 06:19:07;;;;;;;22.65;13.15;;;;;;;4.63;95.63;98931.16;5053772;28;20452;-79
2020/12/05 06:23:00;;;;;;;22.00;13.50;;;;;;;4.65;95.94;98943.34;5053726;28;20085;-77
2020/12/05 06:26:08;;;;;;;17.48;11.68;;;;;;;4.59;95.94;98933.25;5047616;28;20048;-77
2020/12/05 06:29:12;;;;;;;15.32;9.77;;;;;;;4.58;95.72;98939.53;5054010;28;20060;-78
2020/12/05 06:32:36;;;;;;;13.93;9.60;;;;;;;4.60;95.18;98954.38;5053411;28;20494;-78
2020/12/05 06:35:40;;;;;;;12.93;9.43;;;;;;;4.51;95.07;98955.19;5053892;28;20052;-78
2020/12/05 06:38:45;;;;;;;13.90;8.70;;;;;;;4.42;95.25;98971.88;5053587;28;20052;-78
2020/12/05 06:41:51;;;;;;;9.65;8.63;;;;;;;4.35;95.23;98983.16;5053695;28;20482;-78
2020/12/05 06:44:56;;;;;;;9.27;8.25;;;;;;;4.30;95.08;99001.28;5053359;28;20064;-78
2020/12/05 06:48:09;;;;;;;10.18;7.93;;;;;;;4.29;94.94;99008.44;5053690;28;20048;-78
2020/12/05 06:51:23;;;;;;;9.18;8.07;;;;;;;4.28;94.87;99014.69;5041231;28;20387;-77
2020/12/05 06:54:47;;;;;;;;;;;;;;;4.27;94.75;99014.84;5054130;28;20044;-77
2020/12/05 06:58:00;;;;;;;10.15;8.48;;;;;;;4.24;94.18;99018.59;5053463;28;20271;-77
2020/12/05 07:01:04;;;;;;;11.50;10.32;;;;;;;4.14;93.89;99015.00;5053290;28;20071;-77
2020/12/05 07:04:27;;;;;;;12.65;10.75;;;;;;;4.10;93.83;99005.59;5053188;28;20071;-77
2020/12/05 07:07:31;;;;;;;10.38;8.93;;;;;;;4.14;93.73;99007.03;5041120;28;20052;-78
2020/12/05 07:10:48;;;;;;;9.90;8.82;;;;;;;4.14;93.68;98999.09;5056792;28;20044;-78
2020/12/05 07:13:52;;;;;;;9.82;8.82;;;;;;;4.20;93.39;99011.81;5056962;28;20056;-78
2020/12/05 07:16:56;;;;;;;9.48;8.48;;;;;;;4.20;93.32;99017.13;5056790;28;20044;-78
2020/12/05 07:20:01;;;;;;;10.85;9.65;;;;;;;4.17;93.44;99014.75;5056827;28;20064;-78
2020/12/05 07:23:05;;;;;;;9.95;8.95;;;;;;;4.18;93.36;99018.25;5056616;28;20044;-78
2020/12/05 07:26:10;;;;;;;10.05;8.85;;;;;;;4.21;93.06;99016.19;5056789;28;20495;-77
2020/12/05 07:29:20;;;;;;;10.88;9.77;;;;;;;4.21;92.82;99028.63;5044143;28;20063;-77
2020/12/05 07:32:32;;;;;;;13.40;10.88;;;;;;;4.19;93.33;99035.88;5056593;28;20387;-76
2020/12/05 07:35:37;;;;;;;11.48;10.27;;;;;;;4.24;93.39;99036.34;5056661;28;20056;-75
2020/12/05 07:38:43;;;;;;;10.90;9.55;;;;;;;4.29;92.93;99037.66;5055875;28;20064;-78
2020/12/05 07:41:51;;;;;;;9.80;8.82;;;;;;;4.27;93.00;99034.25;5056357;28;20040;-78
2020/12/05 07:45:11;;;;;;;11.73;9.38;;;;;;;4.19;92.40;99036.72;5056130;28;20050;-76
2020/12/05 07:48:18;;;;;;;10.35;9.25;;;;;;;4.16;92.80;99042.28;5056144;28;20064;-75
2020/12/05 07:51:23;;;;;;;12.23;10.35;;;;;;;3.92;93.08;99037.19;5055972;28;20430;-79
2020/12/05 07:54:27;;;;;;;11.77;10.45;;;;;;;3.81;94.12;99036.34;5055646;28;20396;-79
2020/12/05 07:57:34;;;;;;;12.40;11.13;;;;;;;3.75;94.65;99026.25;5043988;28;20048;-79
2020/12/05 08:00:38;;;;;;;14.45;12.00;;;;;;;3.76;95.15;99027.91;5056290;28;20462;-78
2020/12/05 08:04:00;;;;;;;15.73;12.35;;;;;;;3.81;95.45;99013.31;5053950;28;20059;-79
2020/12/05 08:07:15;;;;;;;14.45;12.27;;;;;;;3.98;95.76;99006.63;5053856;28;20056;-78
2020/12/05 08:10:19;;;;;;;14.82;12.30;;;;;;;4.18;95.49;99021.75;5051116;28;20063;-80
2020/12/05 08:13:26;;;;;;;15.05;13.10;;;;;;;4.17;95.73;99012.13;5055007;28;20059;-78
2020/12/05 08:16:35;;;;;;;14.77;12.48;;;;;;;4.31;95.57;99018.91;5067875;28;20047;-78
2020/12/05 08:19:43;;;;;;;15.98;11.90;;;;;;;4.40;95.67;99029.59;5074053;28;20505;-79
2020/12/05 08:22:47;;;;;;;15.27;11.73;;;;;;;4.54;95.36;99034.59;5055332;28;20051;-77
2020/12/05 08:25:55;;;;;;;15.63;12.05;;;;;;;4.54;95.23;99034.59;5067821;28;20498;-77
2020/12/05 08:29:00;;;;;;;15.40;12.55;;;;;;;4.58;95.51;99061.75;5074316;28;20047;-77
2020/12/05 08:32:04;;;;;;;14.50;12.30;;;;;;;4.56;95.26;99064.56;5074756;28;20048;-77
2020/12/05 08:35:13;;;;;;;17.67;12.90;;;;;;;4.62;95.40;99059.72;5075040;28;20055;-77
2020/12/05 08:38:21;;;;;;;14.95;12.65;;;;;;;4.65;95.31;99052.31;5075220;28;20051;-77
2020/12/05 08:41:27;;;;;;;17.30;14.70;;;;;;;4.64;95.14;99052.44;5074809;28;20403;-78
2020/12/05 08:44:32;;;;;;;15.57;13.73;;;;;;;4.64;95.30;99037.34;5074932;28;20051;-78
2020/12/05 08:47:44;;;;;;;16.33;13.45;;;;;;;4.66;95.57;99043.38;5074389;28;20052;-77
2020/12/05 08:50:48;;;;;;;22.40;15.32;;;;;;;4.67;95.57;99054.84;5062304;28;20051;-78
2020/12/05 08:54:06;;;;;;;16.05;14.18;;;;;;;4.73;95.63;99056.97;5073603;28;20056;-78
2020/12/05 08:57:14;;;;;;;20.35;15.27;;;;;;;4.75;95.65;99063.84;5062155;28;20399;-77
2020/12/05 09:00:20;;;;;;;20.65;15.57;;;;;;;4.81;95.88;99073.97;5074847;28;20056;-78
2020/12/05 09:03:24;;;;;;;21.85;16.33;;;;;;;4.80;95.58;99084.72;5074278;28;20051;-78
2020/12/05 09:06:28;;;;;;;20.98;15.82;;;;;;;4.78;95.69;99073.38;5062115;28;20442;-77
2020/12/05 09:09:33;;;;;;;18.80;15.15;;;;;;;4.79;96.05;99059.94;5074108;28;20047;-77
2020/12/05 09:12:37;;;;;;;19.90;15.45;;;;;;;4.81;96.07;99068.66;5074358;28;20048;-77
2020/12/05 09:15:56;;;;;;;21.05;16.35;;;;;;;4.83;96.48;99061.38;5074017;28;20502;-76
2020/12/05 09:19:01;;;;;;;20.77;16.02;;;;;;;4.91;96.39;99064.25;5074280;28;20056;-77
2020/12/05 09:22:05;;;;;;;23.08;16.80;;;;;;;4.95;96.39;99073.63;5061409;28;20052;-77
2020/12/05 09:25:10;;;;;;;25.08;17.08;;;;;;;4.94;96.21;99079.06;5073804;28;20059;-76
2020/12/05 09:28:18;;;;;;;22.02;17.83;;;;;;;4.93;96.27;99086.22;5073891;28;20055;-77
2020/12/05 09:31:22;;;;;;;19.85;16.27;;;;;;;5.01;96.52;99099.69;5073361;28;20537;-77
2020/12/05 09:34:35;;;;;;;22.20;16.90;;;;;;;5.02;96.65;99104.03;5061366;28;20399;-77
2020/12/05 09:37:39;;;;;;;26.30;18.15;;;;;;;5.04;96.84;99107.41;5057353;28;20526;-76
2020/12/05 09:40:44;;;;;;;22.90;17.67;;;;;;;5.06;96.72;99092.16;5041508;28;20206;-77
2020/12/05 09:43:48;;;;;;;24.85;18.23;;;;;;;5.14;96.73;99100.34;5033444;28;20044;-77
2020/12/05 09:46:52;;;;;;;25.60;18.52;;;;;;;5.15;96.89;99087.88;5058928;28;20051;-76
2020/12/05 09:49:57;;;;;;;21.38;16.25;;;;;;;5.19;97.31;99083.97;5073279;28;20044;-78
2020/12/05 09:53:02;;;;;;;20.65;16.80;;;;;;;5.16;96.96;99090.41;5073115;28;20077;-75
2020/12/05 09:56:07;;;;;;;21.60;16.60;;;;;;;5.07;96.89;99087.69;5073164;28;20063;-76
2020/12/05 09:59:11;;;;;;;19.67;16.10;;;;;;;5.08;97.27;99073.44;5061196;28;20047;-76
2020/12/05 10:02:17;;;;;;;20.45;16.38;;;;;;;5.04;96.88;99088.78;5073180;28;20048;-75
2020/12/05 10:05:22;;;;;;;19.30;15.73;;;;;;;4.97;96.73;99074.34;5073238;28;20056;-76
2020/12/05 10:08:26;;;;;;;19.33;16.10;;;;;;;4.98;97.12;99069.88;5072853;28;20044;-75
2020/12/05 10:11:30;;;;;;;19.55;15.80;;;;;;;5.01;96.98;99072.28;5061310;28;20051;-76
2020/12/05 10:14:35;;;;;;;18.20;15.77;;;;;;;5.01;96.48;99085.56;5073373;28;20514;-75
2020/12/05 10:17:41;;;;;;;17.83;15.23;;;;;;;5.00;96.57;99078.56;5073365;28;20052;-76
2020/12/05 10:20:45;;;;;;;21.42;16.17;;;;;;;5.01;96.68;99085.56;5073352;28;20051;-77
2020/12/05 10:23:49;;;;;;;19.27;16.45;;;;;;;5.00;96.66;99090.03;5049170;28;20047;-75
2020/12/05 10:26:54;;;;;;;19.58;16.30;;;;;;;5.06;96.71;99099.31;5073647;28;20402;-75
2020/12/05 10:29:58;;;;;;;21.85;17.20;;;;;;;5.03;96.63;99094.25;5072826;28;20052;-75
2020/12/05 10:33:03;;;;;;;20.02;17.20;;;;;;;5.08;96.81;99092.91;5073294;28;20411;-75
2020/12/05 10:36:07;;;;;;;20.60;17.08;;;;;;;5.08;96.88;99100.03;5060791;28;20051;-78
2020/12/05 10:39:12;;;;;;;24.63;19.40;;;;;;;5.01;96.81;99107.66;5060810;28;20051;-81
2020/12/05 10:42:16;;;;;;;24.38;20.10;;;;;;;4.99;97.37;99106.09;5072956;28;20052;-78
2020/12/05 10:45:21;;;;;;;26.13;21.33;;;;;;;4.94;97.56;99097.69;5076822;28;20398;-77
2020/12/05 10:48:25;;;;;;;22.98;19.73;;;;;;;5.01;97.71;99085.56;5077087;28;20398;-77
2020/12/05 10:51:29;;;;;;;24.05;19.00;;;;;;;5.03;97.81;99075.63;5065621;28;20052;-77
2020/12/05 10:54:34;;;;;;;24.40;19.35;;;;;;;5.09;98.00;99037.88;5056521;28;20059;-77
2020/12/05 10:57:38;;;;;;;26.98;21.08;;;;;;;5.08;98.23;99010.47;5057004;28;20052;-77
2020/12/05 11:00:43;;;;;;;22.00;19.35;;;;;;;5.09;98.04;99005.97;5056429;28;20048;-76
2020/12/05 11:03:47;;;;;;;24.88;20.48;;;;;;;5.10;97.67;99018.28;5056620;28;20061;-76
2020/12/05 11:06:52;;;;;;;22.42;19.20;;;;;;;5.14;97.87;99017.03;5044246;28;20116;-76
2020/12/05 11:09:56;;;;;;;22.40;19.30;;;;;;;5.15;97.73;99018.72;5056476;28;20506;-76
2020/12/05 11:13:01;;;;;;;25.02;18.73;;;;;;;5.21;98.08;99020.84;5056438;28;20052;-77
2020/12/05 11:16:05;;;;;;;21.77;18.40;;;;;;;5.17;97.45;99001.66;5056352;28;20044;-78
2020/12/05 11:19:09;;;;;;;23.88;19.90;;;;;;;5.20;97.64;99011.19;5044249;28;20061;-77
2020/12/05 11:22:14;;;;;;;26.33;22.35;;;;;;;5.17;97.83;99024.75;5056301;28;20068;-76
2020/12/05 11:25:18;;;;;;;24.13;21.58;;;;;;;5.20;97.87;99035.13;5055924;28;20044;-77
2020/12/05 11:28:22;;;;;;;23.70;20.25;;;;;;;5.23;97.98;99014.41;5056050;28;20048;-76
2020/12/05 11:31:27;;;;;;;23.70;20.80;;;;;;;5.26;97.78;99015.97;5055809;28;20048;-77
2020/12/05 11:34:31;;;;;;;29.42;23.23;;;;;;;5.25;98.14;99007.16;5043826;28;20052;-77
2020/12/05 11:37:36;;;;;;;26.75;22.63;;;;;;;5.26;97.69;99003.50;5055882;28;20048;-77
2020/12/05 11:40:40;;;;;;;26.15;21.95;;;;;;;5.26;97.80;99010.66;5055508;28;20056;-76
2020/12/05 11:43:44;;;;;;;26.08;22.80;;;;;;;5.24;98.38;99018.78;5056062;28;20399;-77
2020/12/05 11:46:50;;;;;;;26.92;22.50;;;;;;;5.29;98.29;99021.03;5055590;28;20502;-76
2020/12/05 11:49:55;;;;;;;24.45;19.52;;;;;;;5.30;97.96;99001.44;5055719;28;20040;-76
2020/12/05 11:53:00;;;;;;;24.13;20.77;;;;;;;5.34;98.13;98986.03;5055392;28;20055;-76
2020/12/05 11:56:06;;;;;;;23.92;19.17;;;;;;;5.35;98.08;98961.13;5052854;28;20060;-78
2020/12/05 11:59:11;;;;;;;21.33;17.35;;;;;;;5.34;98.31;98949.63;5043167;28;20052;-77
2020/12/05 12:02:15;;;;;;;17.42;15.32;;;;;;;5.32;97.95;98950.75;5055488;28;20052;-76
2020/12/05 12:05:20;;;;;;;20.90;16.00;;;;;;;5.25;98.35;98955.78;5042427;28;20056;-76
2020/12/05 12:08:24;;;;;;;24.08;20.77;;;;;;;5.31;98.12;98949.91;5053547;28;20044;-76
2020/12/05 12:11:29;;;;;;;150.05;110.88;;;;;;;5.33;98.23;98941.81;5042633;28;20067;-78
2020/12/05 12:14:33;;;;;;;44.28;33.47;;;;;;;5.31;98.63;98941.91;5054966;28;20053;-75
2020/12/05 12:17:37;;;;;;;23.60;18.35;;;;;;;5.30;98.20;98942.06;5042480;28;20064;-75
2020/12/05 12:20:42;;;;;;;20.17;16.05;;;;;;;5.29;98.31;98941.22;5054874;28;20044;-76
2020/12/05 12:23:46;;;;;;;18.95;15.48;;;;;;;5.36;98.37;98954.84;5055001;28;20052;-75
2020/12/05 12:26:51;;;;;;;20.90;15.25;;;;;;;5.32;98.36;98956.91;5055081;28;20055;-76
2020/12/05 12:29:55;;;;;;;17.92;15.20;;;;;;;5.31;98.36;98941.91;5054974;28;20056;-76
2020/12/05 12:33:01;;;;;;;23.75;16.67;;;;;;;5.40;98.07;98903.03;5055152;28;20056;-77
2020/12/05 12:36:05;;;;;;;22.92;17.17;;;;;;;5.52;98.16;98883.28;5055307;28;20487;-78
2020/12/05 12:39:09;;;;;;;19.92;17.25;;;;;;;5.55;98.42;98889.19;5043103;28;20483;-77
2020/12/05 12:42:14;;;;;;;22.70;17.83;;;;;;;5.46;98.44;98884.69;5055389;28;20052;-79
2020/12/05 12:45:27;;;;;;;20.50;16.63;;;;;;;5.53;98.68;98911.59;5042961;28;20155;-79
2020/12/05 12:51:36;;;;;;;18.88;16.13;;;;;;;5.58;98.53;98926.16;5055080;28;20380;-77
2020/12/05 12:54:40;;;;;;;20.30;15.40;;;;;;;5.67;98.53;98919.16;5014188;28;20508;-76
2020/12/05 12:57:47;;;;;;;19.50;15.13;;;;;;;5.77;97.89;98931.50;5014970;28;20069;-78
2020/12/05 13:00:51;;;;;;;22.48;18.98;;;;;;;5.67;98.38;98930.66;5015143;28;20052;-76
2020/12/05 13:03:55;;;;;;;21.35;16.90;;;;;;;5.67;98.40;98930.66;5015389;28;20053;-81
2020/12/05 13:07:00;;;;;;;19.23;15.50;;;;;;;5.68;98.27;98929.66;5015142;28;20053;-78
2020/12/05 13:10:05;;;;;;;18.65;14.63;;;;;;;5.72;98.48;98941.75;5013906;28;20049;-78
2020/12/05 13:13:09;;;;;;;15.52;12.75;;;;;;;5.65;97.97;98921.94;5014755;28;20045;-75
2020/12/05 13:16:21;;;;;;;13.43;10.90;;;;;;;5.70;98.39;98921.56;5005893;28;20049;-78
2020/12/05 13:19:28;;;;;;;13.77;10.73;;;;;;;5.71;98.22;98926.72;5009253;28;20052;-78
2020/12/05 13:22:32;;;;;;;12.40;9.23;;;;;;;5.69;98.22;98938.50;5014957;28;20044;-78
2020/12/05 13:25:36;;;;;;;10.60;7.97;;;;;;;5.71;98.29;98942.69;5014158;28;20495;-78
2020/12/05 13:28:41;;;;;;;12.95;7.53;;;;;;;5.66;97.93;98944.09;5014399;28;20045;-80
2020/12/05 13:31:45;;;;;;;;;;;;;;;5.63;97.93;98934.56;5015448;28;20056;-79
2020/12/05 13:34:49;;;;;;;9.52;6.45;;;;;;;5.49;98.01;98911.03;5007766;28;19916;-80
2020/12/05 13:37:54;;;;;;;7.72;5.72;;;;;;;5.61;97.73;98917.91;5019678;28;20057;-77
2020/12/05 13:40:58;;;;;;;7.90;6.18;;;;;;;5.55;97.86;98909.63;5014127;28;20053;-78
2020/12/05 13:44:04;;;;;;;7.63;4.88;;;;;;;5.52;97.72;98915.22;5014088;28;20057;-77
2020/12/05 13:47:09;;;;;;;5.38;4.22;;;;;;;5.62;97.10;98916.94;5011891;28;20114;-80
2020/12/05 13:50:13;;;;;;;6.40;3.17;;;;;;;5.62;96.95;98932.03;4994508;28;20057;-80
2020/12/05 13:53:17;;;;;;;3.88;3.13;;;;;;;5.60;96.95;98948.16;5015532;28;20057;-81
2020/12/05 13:56:22;;;;;;;4.22;3.10;;;;;;;5.55;96.70;98939.75;5052573;28;20399;-80
2020/12/05 13:59:26;;;;;;;5.60;2.83;;;;;;;5.52;96.47;98925.88;5040356;28;20052;-80
2020/12/05 14:02:30;;;;;;;4.47;2.90;;;;;;;5.48;96.33;98927.94;5040553;28;20048;-79
2020/12/05 14:05:34;;;;;;;6.47;3.00;;;;;;;5.48;96.36;98911.16;5053312;28;20108;-79
2020/12/05 14:08:39;;;;;;;4.13;2.83;;;;;;;5.43;96.60;98914.22;5053277;28;20051;-81
2020/12/05 14:11:44;;;;;;;3.38;2.50;;;;;;;5.41;96.16;98923.31;5053407;28;20068;-77
2020/12/05 14:14:50;;;;;;;5.00;3.15;;;;;;;5.34;96.35;98949.63;5037877;28;20044;-81
2020/12/05 14:17:54;;;;;;;4.32;2.60;;;;;;;5.33;96.46;98969.25;5037168;28;20399;-78
2020/12/05 14:20:59;;;;;;;3.35;2.25;;;;;;;5.24;95.50;98949.63;5062771;28;20052;-79
2020/12/05 14:24:03;;;;;;;4.45;1.77;;;;;;;5.16;95.21;98948.63;5043451;28;20044;-78
2020/12/05 14:27:08;;;;;;;18.58;12.88;;;;;;;5.16;95.15;98928.16;4989045;28;20054;-79
2020/12/05 14:30:13;;;;;;;52.15;34.45;;;;;;;5.07;94.64;98899.72;4991852;28;20069;-81
2020/12/05 14:33:19;;;;;;;9.73;6.05;;;;;;;5.00;94.70;98895.09;4982525;28;20595;-81
2020/12/05 14:36:24;;;;;;;6.43;2.88;;;;;;;5.04;94.23;98909.78;4992982;28;20058;-81